Thursday, January 18, 2018, 4:05 PM GMT
Back to Local

CWST, La Pocatiere

Location: , , Canada Lat: 47.35
Local Time: 4:05 PM GMT (16:05 GMT) Lon: -70.033
Time Zone: GMT Elev: 101 ft

Show me the last for .
Show Coded

Time T Td Feel RH Dir Speed Gust Alt SLP Vis Weather Sky Remarks
2018-01-18 15:00 22 16 4 78 220° 21 28 - 29.80 0 Peak wind: 32 mph (28 kts) from 220° at 18 min
2018-01-18 14:00 21 16 3 81 220° 22 29 - 29.79 0 Peak wind: 31 mph (27 kts) from 230° at 12 min
2018-01-18 13:00 20 16 1 82 220° 24 31 - 29.78 0 Peak wind: 32 mph (28 kts) from 220° at 12 min
2018-01-18 12:00 22 16 4 76 220° 25 31 - 29.79 0 Peak wind: 31 mph (27 kts) from 220° at 53 min
2018-01-18 11:00 20 16 3 81 220° 21 28 - 29.80 0 Peak wind: 27 mph (24 kts) from 210° at 56 min
2018-01-18 10:00 20 15 2 80 220° 21 28 - 29.81 0 Peak wind: 29 mph (26 kts) from 220° at 28 min
2018-01-18 09:00 20 15 3 79 210° 18 25 - 29.84 0 Peak wind: 29 mph (26 kts) from 210° at 29 min
2018-01-18 08:00 20 14 2 77 210° 21 28 - 29.86 0 Peak wind: 27 mph (24 kts) from 210° at 56 min
2018-01-18 07:00 20 13 2 74 210° 22 29 - 29.88 0 Peak wind: 28 mph (25 kts) from 210° at 56 min
2018-01-18 06:00 20 13 2 74 220° 20 26 - 29.89 0 Peak wind: 29 mph (26 kts) from 230° at 21 min
2018-01-18 05:00 20 14 1 77 220° 23 30 - 29.91 0 Peak wind: 29 mph (26 kts) from 210° at 23 min
2018-01-18 04:00 20 14 2 76 220° 20 28 - 29.94 0 Peak wind: 27 mph (24 kts) from 230° at 55 min
2018-01-18 03:00 19 14 2 81 220° 22 - - 29.97 0 Peak wind: 26 mph (23 kts) from 220° at 58 min
2018-01-18 02:00 19 14 5 80 230° 15 - - 30.00 0 Peak wind: 21 mph (19 kts) from 190° at 23 min
2018-01-18 01:00 20 14 7 77 210° 14 - - 30.03 0 Peak wind: 21 mph (19 kts) from 200° at 44 min
2018-01-18 00:00 17 15 5 89 220° 12 - - 30.06 0 None
2018-01-17 23:00 20 13 8 74 210° 12 - - 30.08 0 None
2018-01-17 22:00 20 13 7 73 210° 12 - - 30.11 0 None
2018-01-17 21:00 15 8 3 73 220° 9 - - 30.12 0 None
2018-01-17 20:00 21 12 5 68 210° 14 20 - 30.14 0 Peak wind: 23 mph (20 kts) from 220° at 22 min
2018-01-17 19:00 21 13 6 69 210° 12 18 - 30.16 0 None
2018-01-17 18:00 18 12 4 78 230° 15 - - 30.19 0 Peak wind: 20 mph (18 kts) from 220° at 01 min
2018-01-17 17:00 18 13 4 77 220° 16 - - 30.22 0 Peak wind: 23 mph (20 kts) from 230° at 45 min

Support USWX by starting your Amazon purchase here.